Time;durP1;ratioP1;P1;durP2;ratioP2;P2;SDS_P1;SDS_P2;PMS_P1;PMS_P2;Temp;Humidity;BMP_temperature;BMP_pressure;BME280_temperature;BME280_humidity;BME280_pressure;Samples;Min_cycle;Max_cycle;Signal;HPM_P1;HPM_P2
2024/04/18 00:01:52;;;;;;;;;;;18.20;48.80;;;17.66;44.97;99368.91;11174852;26;1845;-70
2024/04/18 00:06:47;;;;;;;;;;;18.20;48.70;;;17.65;45.46;99367.16;11173472;26;859;-70
2024/04/18 00:11:42;;;;;;;;;;;18.20;48.80;;;17.62;45.06;99365.53;11174557;26;916;-70
2024/04/18 00:16:38;;;;;;;;;;;18.20;48.80;;;17.62;45.55;99368.19;11174490;26;859;-70
2024/04/18 00:21:34;;;;;;;;;;;18.20;48.80;;;17.62;45.02;99372.59;11174223;26;1829;-70
2024/04/18 00:26:29;;;;;;;;;;;18.20;48.70;;;17.60;45.41;99375.28;11174110;26;919;-70
2024/04/18 00:31:25;;;;;;;;;;;18.10;49.30;;;17.59;45.05;99373.59;11174622;26;955;-70
2024/04/18 00:36:20;;;;;;;;;;;18.10;48.80;;;17.59;45.23;99375.38;11173724;26;860;-70
2024/04/18 00:41:15;;;;;;;;;;;18.20;48.80;;;17.58;45.49;99382.44;11173630;26;1832;-70
2024/04/18 00:46:11;;;;;;;;;;;18.20;48.80;;;17.59;45.44;99388.56;11173465;26;875;-70
2024/04/18 00:51:06;;;;;;;;;;;18.20;48.80;;;17.56;45.02;99386.94;11173257;26;847;-70
2024/04/18 00:56:02;;;;;;;;;;;18.20;48.80;;;17.56;45.34;99394.84;11173682;26;985;-70
2024/04/18 01:00:57;;;;;;;;;;;;;;;17.54;45.28;99396.69;11173416;26;1125;-70
2024/04/18 01:05:53;;;;;;;;;;;;;;;17.54;44.94;99396.69;11173275;26;1832;-70
2024/04/18 01:10:49;;;;;;;;;;;;;;;17.54;45.61;99396.69;11173624;26;925;-70
2024/04/18 01:15:45;;;;;;;;;;;;;;;17.53;45.61;99400.25;11173035;26;1066;-70
2024/04/18 01:20:41;;;;;;;;;;;;;;;17.52;45.06;99399.38;11178777;26;806;-70
2024/04/18 01:25:37;;;;;;;;;;;;;;;17.52;45.42;99401.16;11179965;26;1836;-70
2024/04/18 01:30:33;;;;;;;;;;;;;;;17.51;45.63;99413.50;11179884;26;950;-70
2024/04/18 01:35:29;;;;;;;;;;;;;;;17.51;45.48;99412.66;11179826;26;1010;-70
2024/04/18 01:40:24;;;;;;;;;;;;;;;17.50;45.58;99418.81;11179825;26;836;-70
2024/04/18 01:45:20;;;;;;;;;;;;;;;17.49;45.52;99428.50;11179503;26;1925;-70
2024/04/18 01:50:16;;;;;;;;;;;;;;;17.47;45.62;99419.81;11179380;26;878;-70
2024/04/18 01:55:12;;;;;;;;;;;;;;;17.49;45.27;99425.03;11179229;26;816;-70
2024/04/18 02:00:08;;;;;;;;;;;;;;;17.47;45.52;99430.34;11178851;26;1171;-70
2024/04/18 02:05:04;;;;;;;;;;;;;;;17.47;45.12;99432.16;11178262;26;1841;-70
2024/04/18 02:10:00;;;;;;;;;;;;;;;17.46;45.58;99435.72;11178050;26;824;-70
2024/04/18 02:14:56;;;;;;;;;;;;;;;17.46;45.14;99438.34;11178033;26;827;-70
2024/04/18 02:19:51;;;;;;;;;;;;;;;17.45;45.71;99440.16;11177818;26;981;-70
2024/04/18 02:24:47;;;;;;;;;;;;;;;17.44;44.89;99441.06;11178306;26;1825;-70
2024/04/18 02:29:43;;;;;;;;;;;;;;;17.44;45.32;99450.75;11176800;26;1081;-70
2024/04/18 02:34:39;;;;;;;;;;;;;;;17.42;45.00;99450.84;11177465;26;911;-70
2024/04/18 02:39:36;;;;;;;;;;;;;;;17.43;45.56;99446.41;11177173;26;875;-70
2024/04/18 02:44:32;;;;;;;;;;;;;;;17.42;44.94;99457.84;11177144;26;1832;-70
2024/04/18 02:49:28;;;;;;;;;;;;;;;17.42;45.57;99466.63;11177102;26;851;-70
2024/04/18 02:54:24;;;;;;;;;;;;;;;17.41;45.09;99474.59;11176922;26;984;-70
2024/04/18 02:59:20;;;;;;;;;;;;;;;17.40;45.03;99476.38;11176641;26;1079;-70
2024/04/18 03:04:16;;;;;;;;;;;;;;;17.39;45.63;99469.38;11177917;26;1821;-70
2024/04/18 03:09:12;;;;;;;;;;;;;;;17.40;45.48;99484.28;11177242;26;950;-70
2024/04/18 03:14:07;;;;;;;;;;;;;;;17.39;45.54;99485.19;11177552;26;1040;-70
2024/04/18 03:19:03;;;;;;;;;;;;;;;17.40;45.14;99488.72;11176819;26;893;-70
2024/04/18 03:23:59;;;;;;;;;;;;;;;17.38;45.24;99496.66;11176566;26;1832;-70
2024/04/18 03:28:55;;;;;;;;;;;;;;;17.38;44.95;99490.56;11176523;26;954;-70
2024/04/18 03:33:51;;;;;;;;;;;;;;;17.37;45.23;99491.47;11177002;26;1015;-70
2024/04/18 03:38:47;;;;;;;;;;;;;;;17.37;45.31;99494.09;11176531;26;874;-70
2024/04/18 03:43:43;;;;;;;;;;;;;;;17.37;45.54;99499.38;11175051;26;1848;-71
2024/04/18 03:48:39;;;;;;;;;;;;;;;17.37;45.52;99505.50;11175919;26;866;-70
2024/04/18 03:53:34;;;;;;;;;;;;;;;17.39;45.64;99510.69;11175784;26;906;-70
2024/04/18 03:58:30;;;;;;;;;;;;;;;17.40;45.40;99512.41;11175400;26;939;-70
2024/04/18 04:03:26;;;;;;;;;;;;;;;17.41;45.08;99519.38;11175058;26;1837;-71
2024/04/18 04:08:22;;;;;;;;;;;;;;;17.42;45.58;99529.00;11174660;26;922;-70
2024/04/18 04:13:18;;;;;;;;;;;;;;;17.42;45.53;99535.16;11175263;26;919;-70
2024/04/18 04:18:14;;;;;;;;;;;;;;;17.44;45.24;99553.50;11174399;26;968;-70
2024/04/18 04:23:10;;;;;;;;;;;;;;;17.44;45.24;99551.72;11174934;26;1836;-70
2024/04/18 04:28:05;;;;;;;;;;;;;;;17.46;45.26;99564.84;11174162;26;844;-70
2024/04/18 04:33:01;;;;;;;;;;;;;;;17.47;45.05;99569.16;11174649;26;927;-70
2024/04/18 04:37:57;;;;;;;;;;;;;;;17.48;44.89;99578.81;11173807;26;906;-70
2024/04/18 04:42:53;;;;;;;;;;;;;;;17.49;45.58;99583.97;11173490;26;1850;-70
2024/04/18 04:47:49;;;;;;;;;;;;;;;17.50;45.12;99585.72;11174061;26;1047;-70
2024/04/18 04:52:45;;;;;;;;;;;;;;;17.51;44.97;99599.75;11173474;26;728;-70
2024/04/18 04:57:41;;;;;;;;;;;;;;;17.52;45.26;99604.91;11173097;26;903;-70
2024/04/18 05:02:37;;;;;;;;;;;;;;;17.53;45.26;99616.34;11174276;26;1860;-70
2024/04/18 05:07:33;;;;;;;;;;;;;;;17.54;44.94;99620.69;11173403;26;904;-70
2024/04/18 05:12:29;;;;;;;;;;;;;;;17.56;45.47;99623.25;11173528;26;812;-70
2024/04/18 05:17:25;;;;;;;;;;;;;;;17.56;45.21;99629.38;11173012;26;883;-70
2024/04/18 05:22:21;;;;;;;;;;;;;;;17.56;45.39;99645.19;11172766;26;1843;-70
2024/04/18 05:27:17;;;;;;;;;;;;;;;17.58;45.51;99653.00;11172710;26;847;-70
2024/04/18 05:32:13;;;;;;;;;;;;;;;17.57;45.14;99662.72;11173225;26;862;-71
2024/04/18 05:37:09;;;;;;;;;;;;;;;17.58;44.89;99668.81;11172309;26;855;-70
2024/04/18 05:42:05;;;;;;;;;;;;;;;17.59;44.88;99678.47;11171870;26;1863;-71
2024/04/18 05:47:01;;;;;;;;;;;;;;;17.60;45.50;99674.91;11171960;26;899;-70
2024/04/18 05:51:57;;;;;;;;;;;;;;;17.60;44.83;99680.16;11171743;26;978;-70
2024/04/18 05:56:52;;;;;;;;;;;;;;;17.60;44.82;99683.66;11172154;26;868;-70
2024/04/18 06:01:48;;;;;;;;;;;;;;;17.61;45.29;99687.16;11170739;26;1836;-71
2024/04/18 06:06:44;;;;;;;;;;;;;;;17.63;45.01;99707.28;11171505;26;1183;-71
2024/04/18 06:11:45;;;;;;;;;;;;;;;17.65;45.45;99715.09;11177769;26;937;-71
2024/04/18 06:16:41;;;;;;;;;;;;;;;17.64;45.15;99719.50;11177114;26;876;-70
2024/04/18 06:21:37;;;;;;;;;;;;;;;17.66;45.15;99724.72;11177529;26;1849;-71
2024/04/18 06:26:33;;;;;;;;;;;;;;;17.67;45.17;99713.25;11176938;26;873;-70
2024/04/18 06:31:29;;;;;;;;;;;;;;;17.68;45.52;99729.00;11177612;26;905;-71
2024/04/18 06:36:25;;;;;;;;;;;;;;;17.70;45.17;99735.06;11176622;26;938;-71
2024/04/18 06:41:21;;;;;;;;;;;;;;;17.70;44.88;99735.06;11176992;26;1829;-70
2024/04/18 06:46:17;;;;;;;;;;;;;;;17.71;45.07;99757.00;11176293;26;884;-70
2024/04/18 06:51:13;;;;;;;;;;;;;;;17.72;45.38;99762.22;11176872;26;1001;-70
2024/04/18 06:56:08;;;;;;;;;;;;;;;17.72;45.04;99756.09;11176006;26;918;-70
2024/04/18 07:01:05;;;;;;;;;;;;;;;17.73;45.00;99763.06;11176534;26;1265;-70
2024/04/18 07:06:00;;;;;;;;;;;;;;;17.75;45.15;99769.13;11175566;26;1830;-71
2024/04/18 07:10:58;;;;;;;;;;;;;;;17.75;45.22;99777.03;11176167;26;851;-75
2024/04/18 07:15:54;;;;;;;;;;;;;;;17.77;45.43;99788.38;11175262;26;895;-71
2024/04/18 07:20:50;;;;;;;;;;;;;;;17.77;45.08;99787.53;11176183;26;902;-70
2024/04/18 07:25:46;;;;;;;;;;;;;;;17.77;45.63;99784.91;11175953;26;1860;-70
2024/04/18 07:30:42;;;;;;;;;;;;;;;17.77;45.40;99782.25;11176582;26;937;-70
2024/04/18 07:35:38;;;;;;;;;;;;;;;17.77;44.94;99791.03;11175681;26;888;-71
2024/04/18 07:40:34;;;;;;;;;;;;;;;17.78;45.68;99797.16;11176229;26;821;-70
2024/04/18 07:45:31;;;;;;;;;;;;;;;17.75;45.68;99801.63;11175377;26;1825;-72
2024/04/18 07:50:27;;;;;;;;;;;;;;;17.75;45.34;99809.53;11175310;26;865;-71
2024/04/18 07:55:23;;;;;;;;;;;;;;;17.73;45.50;99811.38;11175108;26;981;-70
2024/04/18 08:00:19;;;;;;;;;;;;;;;17.73;45.55;99821.91;11175617;26;1187;-69
2024/04/18 08:05:15;;;;;;;;;;;;;;;17.72;45.59;99833.38;11176091;26;1845;-70
2024/04/18 08:10:10;;;;;;;;;;;;;;;17.73;44.92;99834.25;11175380;26;887;-70
2024/04/18 08:15:06;;;;;;;;;;;;;;;17.74;45.28;99842.09;11175308;26;910;-70
2024/04/18 08:20:02;;;;;;;;;;;;;;;17.74;45.19;99850.00;11175032;26;890;-70
2024/04/18 08:24:58;;;;;;;;;;;;;;;17.74;45.13;99852.66;11174938;26;1835;-70
2024/04/18 08:29:54;;;;;;;;;;;;;;;17.75;45.20;99861.41;11173716;26;840;-70
2024/04/18 08:34:50;;;;;;;;;;;;;;;17.79;45.69;99859.50;11174645;26;905;-70
2024/04/18 08:39:46;;;;;;;;;;;;;;;17.79;44.84;99865.69;11174418;26;986;-70
2024/04/18 08:44:42;;;;;;;;;;;;;;;17.79;45.32;99875.31;11174822;26;1837;-70
2024/04/18 08:49:38;;;;;;;;;;;;;;;17.79;45.00;99872.66;11174077;26;848;-70
2024/04/18 08:54:34;;;;;;;;;;;;;;;17.79;45.55;99870.94;11173880;26;831;-70
2024/04/18 08:59:29;;;;;;;;;;;;;;;17.80;45.17;99877.94;11174093;26;1184;-70
2024/04/18 09:04:25;;;;;;;;;;;;;;;17.82;45.42;99886.63;11173332;26;1907;-73
2024/04/18 09:09:21;;;;;;;;;;;;;;;17.83;44.88;99885.69;11174093;26;859;-68
2024/04/18 09:14:17;;;;;;;;;;;;;;;17.83;44.84;99887.50;11173163;26;892;-73
2024/04/18 09:19:14;;;;;;;;;;;;;;;17.85;45.09;99891.78;11173620;26;845;-73
2024/04/18 09:24:10;;;;;;;;;;;;;;;17.86;45.17;99890.00;11173425;26;1829;-71
2024/04/18 09:29:06;;;;;;;;;;;;;;;17.83;44.90;99903.31;11172625;26;909;-73
2024/04/18 09:34:02;;;;;;;;;;;;;;;17.81;44.79;99902.50;11172457;26;890;-69
2024/04/18 09:38:58;;;;;;;;;;;;;;;17.81;45.18;99903.34;11172979;26;847;-69
2024/04/18 09:43:55;;;;;;;;;;;;;;;17.81;45.40;99907.78;11179240;26;1849;-69
2024/04/18 09:48:51;;;;;;;;;;;;;;;17.82;44.90;99912.16;11179508;26;954;-69
2024/04/18 09:53:47;;;;;;;;;;;;;;;17.82;45.32;99918.28;11179479;26;1022;-69
2024/04/18 09:58:44;;;;;;;;;;;;;;;17.84;44.99;99919.09;11179195;26;926;-69
2024/04/18 10:03:39;;;;;;;;;;;;;;;17.88;45.11;99923.28;11178889;26;1834;-69
2024/04/18 10:08:35;;;;;;;;;;;;;;;17.92;44.85;99913.47;11178378;26;838;-69
2024/04/18 10:13:31;;;;;;;;;;;;;;;17.91;44.97;99920.53;11177986;26;859;-69
2024/04/18 10:18:27;;;;;;;;;;;;;;;17.87;45.34;99926.00;11178442;26;838;-71
2024/04/18 10:23:23;;;;;;;;;;;;;;;17.86;45.05;99925.13;11178500;26;1841;-69
2024/04/18 10:28:19;;;;;;;;;;;;;;;17.88;45.22;99925.06;11177730;26;921;-70
2024/04/18 10:33:15;;;;;;;;;;;;;;;17.88;45.04;99920.66;11177607;26;1006;-70
2024/04/18 10:38:10;;;;;;;;;;;;;;;17.91;44.83;99917.88;11177429;26;875;-70
2024/04/18 10:43:06;;;;;;;;;;;;;;;17.92;44.95;99918.75;11177256;26;1821;-70
2024/04/18 10:48:02;;;;;;;;;;;;;;;17.92;44.68;99918.75;11176739;26;793;-69
2024/04/18 10:52:58;;;;;;;;;;;;;;;17.90;45.19;99910.91;11176974;26;831;-70
2024/04/18 10:57:54;;;;;;;;;;;;;;;17.91;44.78;99924.94;11176891;26;878;-70
2024/04/18 11:02:50;;;;;;;;;;;;;;;17.91;45.05;99924.94;11176971;26;1821;-70
2024/04/18 11:07:46;;;;;;;;;;;;;;;17.91;44.98;99928.44;11177226;26;879;-70
2024/04/18 11:12:42;;;;;;;;;;;;;;;17.93;45.04;99925.75;11177722;26;816;-70
2024/04/18 11:17:37;;;;;;;;;;;;;;;17.95;44.88;99934.47;11176975;26;867;-70
2024/04/18 11:22:33;;;;;;;;;;;;;;;17.96;45.17;99939.66;11177393;26;1817;-70
2024/04/18 11:27:29;;;;;;;;;;;;;;;17.97;44.88;99937.88;11176686;26;908;-70
2024/04/18 11:32:25;;;;;;;;;;;;;;;17.98;44.93;99936.97;11176479;26;999;-70
2024/04/18 11:37:21;;;;;;;;;;;;;;;17.98;44.79;99936.97;11176374;26;911;-67
2024/04/18 11:42:17;;;;;;;;;;;;;;;17.98;45.04;99929.06;11176189;26;1817;-68
2024/04/18 11:47:13;;;;;;;;;;;;;;;17.99;44.85;99928.13;11176155;26;903;-72
2024/04/18 11:52:09;;;;;;;;;;;;;;;17.99;44.80;99928.13;11176627;26;1198;-72
2024/04/18 11:57:04;;;;;;;;;;;;;;;17.99;44.94;99925.47;11176373;26;1055;-69
2024/04/18 12:02:00;;;;;;;;;;;;;;;18.00;44.74;99928.97;11173902;26;1830;-66
2024/04/18 12:06:56;;;;;;;;;;;;;;;17.98;44.85;99928.22;11175328;26;906;-71
2024/04/18 12:11:52;;;;;;;;;;;;;;;17.98;45.07;99928.22;11174756;26;829;-70
2024/04/18 12:16:48;;;;;;;;;;;;;;;18.00;44.51;99931.63;11174584;26;932;-71
2024/04/18 12:21:45;;;;;;;;;;;;;;;18.05;44.33;99927.88;11174284;26;1848;-71
2024/04/18 12:26:41;;;;;;;;;;;;;;;18.07;44.28;99933.09;11174131;26;845;-71
2024/04/18 12:31:37;;;;;;;;;;;;;;;18.09;43.98;99932.09;11174087;26;856;-70
2024/04/18 12:36:32;;;;;;;;;;;;;;;18.10;44.75;99925.91;11173986;26;893;-71
2024/04/18 12:41:28;;;;;;;;;;;;;;;18.11;44.65;99930.25;11170377;26;1837;-72
2024/04/18 12:46:24;;;;;;;;;;;;;;;18.05;44.52;99925.25;11173170;26;906;-71
2024/04/18 12:51:20;;;;;;;;;;;;;;;18.04;44.61;99934.06;11172493;26;883;-71
2024/04/18 12:56:18;;;;;;;;;;;;;;;18.05;44.56;99930.53;11172750;26;900;-71
2024/04/18 13:01:13;;;;;;;;;;;;;;;18.07;44.25;99931.28;11171986;26;1143;-72
2024/04/18 13:06:09;;;;;;;;;;;;;;;18.06;44.54;99923.47;11173043;26;1845;-71
2024/04/18 13:11:05;;;;;;;;;;;;;;;18.05;45.03;99917.34;11172168;26;934;-72
2024/04/18 13:16:01;;;;;;;;;;;;;;;18.07;44.82;99917.25;11176646;26;864;-71
2024/04/18 13:20:57;;;;;;;;;;;;;;;18.16;44.23;99908.97;11179554;26;965;-70
2024/04/18 13:25:54;;;;;;;;;;;;;;;18.23;44.19;99910.41;11179562;26;1891;-71
2024/04/18 13:30:50;;;;;;;;;;;;;;;18.27;44.53;99919.91;11180203;26;938;-70
2024/04/18 13:35:45;;;;;;;;;;;;;;;18.31;44.48;99910.06;11180209;26;852;-71
2024/04/18 13:40:41;;;;;;;;;;;;;;;18.37;44.23;99907.19;11179253;26;843;-71
2024/04/18 13:45:37;;;;;;;;;;;;;;;18.40;44.03;99901.78;11179012;26;1836;-70
2024/04/18 13:50:33;;;;;;;;;;;;;;;18.33;44.19;99910.88;11179024;26;806;-70
2024/04/18 13:55:30;;;;;;;;;;;;;;;18.34;43.81;99905.53;11178867;26;961;-70
2024/04/18 14:00:26;;;;;;;;;;;;;;;18.35;44.37;99912.53;11178337;26;1557;-71
2024/04/18 14:05:22;;;;;;;;;;;;;;;18.37;43.98;99909.84;11178540;26;1837;-70
2024/04/18 14:10:18;;;;;;;;;;;;;;;18.31;44.56;99907.44;11177815;26;852;-71
2024/04/18 14:15:27;;;;;;;;;;;;;;;18.30;44.36;99905.75;11177661;26;938;-71
2024/04/18 14:20:23;;;;;;;;;;;;;;;18.30;44.46;99897.81;11177630;26;873;-71
2024/04/18 14:25:19;;;;;;;;;;;;;;;18.29;44.53;99899.59;11176174;26;1856;-71
2024/04/18 14:30:15;;;;;;;;;;;;;;;18.27;44.27;99903.25;11177162;26;965;-70
2024/04/18 14:35:11;;;;;;;;;;;;;;;18.26;44.41;99902.38;11177709;26;894;-72
2024/04/18 14:40:06;;;;;;;;;;;;;;;18.40;43.88;99893.88;11177049;26;808;-71
2024/04/18 14:45:02;;;;;;;;;;;;;;;18.38;43.80;99890.44;11177435;26;1852;-70
2024/04/18 14:49:59;;;;;;;;;;;;;;;18.40;44.33;99888.59;11177241;26;962;-70
2024/04/18 14:54:55;;;;;;;;;;;;;;;18.34;44.26;99883.59;11177195;26;849;-68
2024/04/18 14:59:51;;;;;;;;;;;;;;;18.32;44.04;99874.88;11176327;26;1137;-70
2024/04/18 15:04:47;;;;;;;;;;;;;;;18.32;44.27;99878.38;11176809;26;1863;-70
2024/04/18 15:09:43;;;;;;;;;;;;;;;18.47;43.90;99882.13;11176676;26;877;-70
2024/04/18 15:14:39;;;;;;;;;;;;;;;18.39;44.28;99881.56;11176593;26;934;-70
2024/04/18 15:19:35;;;;;;;;;;;;;;;18.38;44.59;99872.81;11176216;26;949;-72
2024/04/18 15:24:31;;;;;;;;;;;;;;;18.37;44.36;99883.44;11176111;26;1825;-71
2024/04/18 15:29:27;;;;;;;;;;;;;;;18.37;44.52;99883.44;11176863;26;879;-71
2024/04/18 15:34:23;;;;;;;;;;;;;;;18.35;43.88;99891.41;11176035;26;856;-70
2024/04/18 15:39:19;;;;;;;;;;;;;;;18.35;43.91;99887.94;11175868;26;1080;-70
2024/04/18 15:44:15;;;;;;;;;;;;;;;18.35;44.22;99882.66;11176423;26;1821;-71
2024/04/18 15:49:11;;;;;;;;;;;;;;;18.35;44.66;99885.28;11176263;26;962;-70
2024/04/18 15:54:07;;;;;;;;;;;;;;;18.34;44.51;99894.16;11175502;26;1058;-70
2024/04/18 15:59:02;;;;;;;;;;;;;;;18.33;44.23;99882.72;11174970;26;1606;-71
2024/04/18 16:03:58;;;;;;;;;;;;;;;18.33;44.23;99885.34;11175867;26;1864;-70
2024/04/18 16:08:54;;;;;;;;;;;;;;;18.34;44.10;99881.78;11175058;26;943;-70
2024/04/18 16:13:50;;;;;;;;;;;;;;;18.32;44.23;99880.16;11174906;26;915;-70
2024/04/18 16:18:46;;;;;;;;;;;;;;;18.31;44.29;99878.41;11174778;26;864;-70
2024/04/18 16:23:42;;;;;;;;;;;;;;;18.29;44.36;99885.56;11175158;26;1825;-70
2024/04/18 16:28:38;;;;;;;;;;;;;;;18.27;44.00;99887.41;11175122;26;920;-70
2024/04/18 16:33:36;;;;;;;;;;;;;;;18.23;43.84;99884.03;11174293;26;889;-71
2024/04/18 16:38:32;;;;;;;;;;;;;;;18.22;44.67;99882.31;11174793;26;1017;-70
2024/04/18 16:43:28;;;;;;;;;;;;;;;18.21;44.46;99885.00;11173802;26;1915;-70
2024/04/18 16:48:24;;;;;;;;;;;;;;;18.20;44.67;99885.94;11172953;26;849;-70
2024/04/18 16:53:21;;;;;;;;;;;;;;;18.20;44.40;99881.53;11173556;26;877;-70
2024/04/18 16:58:17;;;;;;;;;;;;;;;18.18;44.29;99872.81;11173374;26;899;-71
2024/04/18 17:03:13;;;;;;;;;;;;;;;18.16;44.32;99872.88;11172451;26;1848;-71
2024/04/18 17:08:09;;;;;;;;;;;;;;;18.17;44.18;99871.94;11172465;26;825;-70
2024/04/18 17:13:05;;;;;;;;;;;;;;;18.16;44.32;99867.63;11172297;26;832;-70
2024/04/18 17:18:01;;;;;;;;;;;;;;;18.16;44.10;99870.25;11172701;26;874;-70
2024/04/18 17:22:57;;;;;;;;;;;;;;;18.17;44.39;99865.81;11171141;26;1833;-68
2024/04/18 17:27:52;;;;;;;;;;;;;;;18.17;44.53;99866.69;11169768;26;768;-72
2024/04/18 17:32:49;;;;;;;;;;;;;;;18.18;44.52;99863.13;11171991;26;851;-69
2024/04/18 17:37:45;;;;;;;;;;;;;;;18.18;44.54;99865.78;11171415;26;888;-72
2024/04/18 17:42:41;;;;;;;;;;;;;;;18.18;44.20;99863.13;11170882;26;1856;-72
2024/04/18 17:47:37;;;;;;;;;;;;;;;18.19;44.72;99869.25;11171245;26;889;-71
2024/04/18 17:52:32;;;;;;;;;;;;;;;18.20;44.58;99865.69;11171518;26;891;-71
2024/04/18 17:57:28;;;;;;;;;;;;;;;18.21;44.60;99867.44;11170552;26;902;-71
2024/04/18 18:02:24;;;;;;;;;;;;;;;18.22;44.82;99863.00;11174749;26;1824;-71
2024/04/18 18:07:20;;;;;;;;;;;;;;;18.22;44.39;99868.28;11179213;26;889;-71
2024/04/18 18:12:16;;;;;;;;;;;;;;;18.22;44.61;99863.00;11178411;26;867;-71
2024/04/18 18:17:12;;;;;;;;;;;;;;;18.21;44.62;99850.72;11179021;26;913;-70
2024/04/18 18:22:08;;;;;;;;;;;;;;;18.22;44.58;99863.00;11178136;26;1876;-71
2024/04/18 18:27:04;;;;;;;;;;;;;;;18.22;44.64;99857.72;11178097;26;853;-70
2024/04/18 18:32:00;;;;;;;;;;;;;;;18.22;44.50;99861.22;11178615;26;1556;-70
2024/04/18 18:36:56;;;;;;;;;;;;;;;18.22;44.58;99863.00;11177844;26;854;-71
2024/04/18 18:41:52;;;;;;;;;;;;;;;18.22;44.42;99855.94;11178220;26;1840;-70
2024/04/18 18:46:48;;;;;;;;;;;;;;;18.23;44.72;99856.78;11178268;26;984;-70
2024/04/18 18:51:44;;;;;;;;;;;;;;;18.23;44.63;99854.16;11177349;26;845;-70
2024/04/18 18:56:40;;;;;;;;;;;;;;;18.23;44.64;99856.78;11177221;26;930;-70
2024/04/18 19:01:36;;;;;;;;;;;;;;;18.23;44.40;99860.28;11176432;26;1829;-70
2024/04/18 19:06:31;;;;;;;;;;;;;;;18.24;44.48;99850.59;11176919;26;841;-70
2024/04/18 19:11:27;;;;;;;;;;;;;;;18.23;44.39;99849.72;11175560;26;931;-70
2024/04/18 19:16:23;;;;;;;;;;;;;;;18.24;44.77;99846.19;11176044;26;875;-71
2024/04/18 19:21:19;;;;;;;;;;;;;;;18.24;44.71;99853.25;11175929;26;931;-70
2024/04/18 19:26:15;;;;;;;;;;;;;;;18.24;44.48;99854.09;11175685;26;1833;-70
2024/04/18 19:31:11;;;;;;;;;;;;;;;18.24;44.44;99845.31;11175574;26;872;-70
2024/04/18 19:36:07;;;;;;;;;;;;;;;18.24;44.69;99848.81;11175421;26;861;-70
2024/04/18 19:41:03;;;;;;;;;;;;;;;18.23;44.85;99839.16;11175943;26;897;-70
2024/04/18 19:45:58;;;;;;;;;;;;;;;18.23;44.60;99848.88;11175705;26;1858;-69
2024/04/18 19:50:54;;;;;;;;;;;;;;;18.21;44.58;99837.53;11174942;26;876;-69
2024/04/18 19:55:50;;;;;;;;;;;;;;;18.19;44.39;99837.59;11175381;26;1118;-69
2024/04/18 20:00:46;;;;;;;;;;;;;;;18.17;44.59;99840.28;11174729;26;1221;-68
2024/04/18 20:05:42;;;;;;;;;;;;;;;18.16;44.23;99830.69;11175802;26;1851;-69
2024/04/18 20:10:38;;;;;;;;;;;;;;;18.15;44.03;99826.31;11174467;26;817;-68
2024/04/18 20:15:34;;;;;;;;;;;;;;;18.14;43.96;99829.03;11174258;26;912;-68
2024/04/18 20:20:30;;;;;;;;;;;;;;;18.13;44.51;99830.81;11174121;26;934;-69
2024/04/18 20:25:25;;;;;;;;;;;;;;;18.12;44.31;99831.72;11172467;26;1851;-69
2024/04/18 20:30:21;;;;;;;;;;;;;;;18.11;44.22;99824.75;11174447;26;1017;-68
2024/04/18 20:35:17;;;;;;;;;;;;;;;18.10;44.12;99825.69;11173547;26;906;-68
2024/04/18 20:40:13;;;;;;;;;;;;;;;18.08;44.23;99824.88;11174185;26;822;-68
2024/04/18 20:45:09;;;;;;;;;;;;;;;18.08;44.18;99818.75;11173298;26;1836;-68
2024/04/18 20:50:07;;;;;;;;;;;;;;;18.07;43.88;99817.88;11173130;26;915;-68
2024/04/18 20:55:03;;;;;;;;;;;;;;;18.05;44.33;99814.47;11172927;26;880;-68
2024/04/18 20:59:59;;;;;;;;;;;;;;;18.05;43.85;99813.59;11172936;26;1207;-68
2024/04/18 21:04:55;;;;;;;;;;;;;;;18.04;44.22;99812.75;11173930;26;1840;-69
2024/04/18 21:09:51;;;;;;;;;;;;;;;18.01;43.80;99786.50;11174050;26;888;-70
2024/04/18 21:14:47;;;;;;;;;;;;;;;18.00;44.09;99792.72;11174122;26;822;-70
2024/04/18 21:19:43;;;;;;;;;;;;;;;18.00;44.40;99778.66;11173232;26;915;-70
2024/04/18 21:24:38;;;;;;;;;;;;;;;17.98;43.96;99773.44;11172893;26;1830;-70
2024/04/18 21:29:34;;;;;;;;;;;;;;;17.98;44.29;99764.69;11173554;26;899;-70
2024/04/18 21:34:30;;;;;;;;;;;;;;;17.95;44.38;99753.34;11173253;26;736;-70
2024/04/18 21:39:26;;;;;;;;;;;;;;;17.95;43.80;99755.97;11179924;26;1036;-70
2024/04/18 21:44:22;;;;;;;;;;;;;;;17.94;44.26;99754.25;11179634;26;1829;-70
2024/04/18 21:49:18;;;;;;;;;;;;;;;17.93;44.23;99765.72;11180518;26;966;-70
2024/04/18 21:54:14;;;;;;;;;;;;;;;17.92;43.79;99758.75;11180212;26;919;-70
2024/04/18 21:59:10;;;;;;;;;;;;;;;17.91;44.42;99757.03;11178991;26;1619;-76
2024/04/18 22:04:05;;;;;;;;;;;;;;;17.92;43.89;99755.25;11178623;26;1836;-70
2024/04/18 22:09:01;;;;;;;;;;;;;;;17.91;43.92;99750.91;11178629;26;884;-69
2024/04/18 22:13:57;;;;;;;;;;;;;;;17.90;44.10;99741.28;11178318;26;883;-69
2024/04/18 22:18:53;;;;;;;;;;;;;;;17.88;44.43;99730.78;11178197;26;903;-69
2024/04/18 22:23:49;;;;;;;;;;;;;;;17.87;44.25;99715.91;11178651;26;1832;-69
2024/04/18 22:28:45;;;;;;;;;;;;;;;17.87;43.85;99715.91;11177948;26;813;-69
2024/04/18 22:33:41;;;;;;;;;;;;;;;17.87;44.10;99715.06;11177724;26;871;-69
2024/04/18 22:38:36;;;;;;;;;;;;;;;17.87;44.33;99696.59;11177723;26;899;-69
2024/04/18 22:43:32;;;;;;;;;;;;;;;17.86;44.50;99695.72;11177395;26;1832;-69
2024/04/18 22:48:28;;;;;;;;;;;;;;;17.85;44.10;99690.53;11177077;26;817;-69
2024/04/18 22:53:24;;;;;;;;;;;;;;;17.85;44.33;99687.91;11177237;26;967;-69
2024/04/18 22:58:20;;;;;;;;;;;;;;;17.84;44.37;99689.69;11177727;26;934;-69
2024/04/18 23:03:16;;;;;;;;;;;;;;;17.84;44.04;99689.69;11177844;26;1828;-69
2024/04/18 23:08:12;;;;;;;;;;;;;;;17.82;43.99;99683.63;11177830;26;898;-69
2024/04/18 23:13:07;;;;;;;;;;;;;;;17.83;44.39;99695.00;11177311;26;827;-69
2024/04/18 23:18:03;;;;;;;;;;;;;;;17.81;43.98;99681.88;11177755;26;839;-70
2024/04/18 23:22:59;;;;;;;;;;;;;;;17.80;44.52;99674.06;11176920;26;1866;-69
2024/04/18 23:27:55;;;;;;;;;;;;;;;17.81;44.16;99659.94;11176883;26;829;-69
2024/04/18 23:32:51;;;;;;;;;;;;;;;17.80;44.23;99650.34;11176680;26;821;-69
2024/04/18 23:37:47;;;;;;;;;;;;;;;17.80;44.13;99634.53;11177152;26;980;-69
2024/04/18 23:42:43;;;;;;;;;;;;;;;17.79;44.30;99614.31;11176150;26;1837;-69
2024/04/18 23:47:39;;;;;;;;;;;;;;;17.77;44.12;99617.03;11176426;26;832;-70
2024/04/18 23:52:35;;;;;;;;;;;;;;;17.78;43.76;99604.69;11176790;26;881;-70
2024/04/18 23:57:30;;;;;;;;;;;;;;;17.78;43.81;99599.41;11175812;26;826;-69
